Edith Kirk — 2DST9 — position and weather

sailwx.info

Track history (hours):
 
Tides and Currents Weather Stations Pressure Air Temp Water Temp Dewpoint Dewpoint Depression Visibility Wind Speed Wind Dir Waves Ship Positions

Edith Kirk

Last reported at 2018-Apr-19 17:21 UTC. Time now 2018-Apr-20 22:14 UTC.
Position N 51°09' E 003°47'.

Length 183 m; draft 9.8 m.

Type: Ship. MMSI: 235081745.

Date/timePositionNaut miles runAvg speedWind from/ knotsBaromVisibWave heightAir tempDewpointWater temp
2018-Apr-19 17:21N 51°09' E 003°47'0 0.1
2018-Apr-19 17:01N 51°09' E 003°47'1 2.9
2018-Apr-19 16:31N 51°10' E 003°48'3 6.5
2018-Apr-19 16:00N 51°13' E 003°48'3 6.3
2018-Apr-19 15:30N 51°16' E 003°50'2 4.2
2018-Apr-19 15:00N 51°18' E 003°50'0 0.5
2018-Apr-19 14:30N 51°19' E 003°50'0 0.8
2018-Apr-19 14:00N 51°19' E 003°50'1 1.6
2018-Apr-19 13:30N 51°20' E 003°49'0 0.7
2018-Apr-19 13:00N 51°20' E 003°49'0 0.5
2018-Apr-19 12:31N 51°20' E 003°49'2 3.1
2018-Apr-19 12:00N 51°21' E 003°47'3 6.8
2018-Apr-19 11:30N 51°24' E 003°43'4 7.4
2018-Apr-19 11:00N 51°26' E 003°39'5 9.0
2018-Apr-19 10:30N 51°25' E 003°32'713.2
2018-Apr-19 10:00N 51°25' E 003°21'612.3
2018-Apr-19 09:31N 51°24' E 003°11'612.2
2018-Apr-19 09:01N 51°24' E 003°02'612.0
2018-Apr-19 08:30N 51°22' E 002°53'611.5
2018-Apr-19 07:59N 51°22' E 002°43'4 6.5
2018-Apr-19 07:21N 51°22' E 002°37'1 1.9
2018-Apr-19 06:48N 51°22' E 002°35'1 2.8
2018-Apr-19 06:29N 51°22' E 002°33'1 2.6
2018-Apr-19 05:59N 51°22' E 002°31'1 2.6
2018-Apr-19 05:30N 51°22' E 002°29'1 2.4
2018-Apr-19 04:58N 51°21' E 002°27'2 3.5
2018-Apr-19 04:31N 51°21' E 002°25'611.5
2018-Apr-19 04:00N 51°18' E 002°17'714.8
2018-Apr-19 03:30N 51°14' E 002°07'815.3
2018-Apr-19 03:00N 51°10' E 001°56'815.7
2018-Apr-19 02:30N 51°07' E 001°45'816.4
2018-Apr-19 02:00N 51°01' E 001°36'816.3
2018-Apr-19 01:30N 50°54' E 001°28'815.7
2018-Apr-19 01:00N 50°47' E 001°24'1114.3
2018-Apr-19 00:13N 50°38' E 001°14'414.3
2018-Apr-18 23:56N 50°35' E 001°09'714.6
2018-Apr-18 23:28N 50°31' E 001°01'714.5
2018-Apr-18 23:00N 50°28' E 000°51'814.9
2018-Apr-18 22:29N 50°25' E 000°40'715.1
2018-Apr-18 22:00N 50°23' E 000°29'715.2
2018-Apr-18 21:30N 50°21' E 000°18'714.9
2018-Apr-18 21:00N 50°19' E 000°06'714.3
2018-Apr-18 20:30N 50°18' W 000°05'713.9
2018-Apr-18 20:01N 50°16' W 000°15'713.5
2018-Apr-18 19:29N 50°15' W 000°26'613.0
2018-Apr-18 19:00N 50°13' W 000°35'612.3
2018-Apr-18 18:30N 50°11' W 000°45'611.5
2018-Apr-18 17:57N 50°10' W 000°54'510.9
2018-Apr-18 17:30N 50°09' W 001°02'510.2
2018-Apr-18 17:00N 50°07' W 001°09'5 9.7
2018-Apr-18 16:30N 50°06' W 001°17'5 9.1
2018-Apr-18 16:00N 50°05' W 001°24'4 8.7
2018-Apr-18 15:30N 50°04' W 001°30'4 8.6
2018-Apr-18 15:00N 50°03' W 001°37'4 8.7
2018-Apr-18 14:30N 50°01' W 001°43'5 9.2
2018-Apr-18 14:00N 50°00' W 001°50'510.1
2018-Apr-18 13:30N 49°59' W 001°58'510.9
2018-Apr-18 13:00N 49°57' W 002°06'611.9
2018-Apr-18 12:30N 49°56' W 002°15'812.8
2018-Apr-18 11:53N 49°54' W 002°27'513.2
2018-Apr-18 11:30N 49°53' W 002°34'713.4
2018-Apr-18 11:00N 49°51' W 002°44'713.5
2018-Apr-18 10:30N 49°49' W 002°54'713.6
2018-Apr-18 09:59N 49°47' W 003°05'713.8
2018-Apr-18 09:31N 49°43' W 003°13'713.8
2018-Apr-18 09:00N 49°40' W 003°22'813.9
2018-Apr-18 08:28N 49°36' W 003°32'1014.0
2018-Apr-18 07:44N 49°30' W 003°46'514.2
2018-Apr-18 07:21N 49°27' W 003°53'4814.3
2018-Apr-18 03:58N 49°02' W 004°56'1514.0
2018-Apr-18 02:53N 48°54' W 005°15'1312.8
2018-Apr-18 01:53N 48°48' W 005°32'1212.0
2018-Apr-18 00:53N 48°38' W 005°44'18110.4
2018-Apr-17 07:35N 45°43' W 004°40'310.6
2018-Apr-17 07:16N 45°41' W 004°36'14312.7
2018-Apr-16 20:00N 43°32' W 003°11'612.8
2018-Apr-16 19:30N 43°26' W 003°07'4 7.3
2018-Apr-16 18:58N 43°22' W 003°06'  
2018-Apr-14 14:09N 43°22' W 003°06'0 0.0
2018-Apr-14 13:56N 43°22' W 003°06'0 0.7
2018-Apr-14 13:28N 43°22' W 003°06'2 4.3
2018-Apr-14 13:00N 43°24' W 003°06'611.4
2018-Apr-14 12:30N 43°30' W 003°07'122 8.6
2018-Apr-13 22:21N 45°20' W 001°55'612.1
2018-Apr-13 21:52N 45°24' W 001°49'511.9
2018-Apr-13 21:27N 45°27' W 001°43'712.3
2018-Apr-13 20:51N 45°32' W 001°35'1011.6
2018-Apr-13 20:01N 45°36' W 001°23'815.4
2018-Apr-13 19:31N 45°40' W 001°13'815.6
2018-Apr-13 19:00N 45°35' W 001°04'917.2
2018-Apr-13 18:31N 45°29' W 000°56'713.8
2018-Apr-13 18:00N 45°23' W 000°50'815.1
2018-Apr-13 17:29N 45°16' W 000°45'3 0.1
2018-Apr-12 02:02N 45°13' W 000°44'012.2
2018-Apr-12 02:00N 45°13' W 000°44'611.5
2018-Apr-12 01:30N 45°19' W 000°47'511.0
2018-Apr-12 01:00N 45°24' W 000°50'5 9.5
2018-Apr-12 00:30N 45°27' W 000°54'714.3
2018-Apr-12 00:01N 45°33' W 001°01'714.2
2018-Apr-11 23:31N 45°38' W 001°07'713.0
2018-Apr-11 23:01N 45°38' W 001°17'612.0
2018-Apr-11 22:31N 45°35' W 001°24'2 3.7
2018-Apr-11 22:00N 45°36' W 001°26'1 2.1
2018-Apr-11 21:30N 45°36' W 001°28'0 0.2
2018-Apr-11 20:47N 45°36' W 001°28'0 0.1
2018-Apr-11 20:20N 45°36' W 001°28'0 0.0
2018-Apr-11 19:53N 45°36' W 001°28'0 0.0
2018-Apr-11 19:29N 45°36' W 001°28'0 0.1
2018-Apr-11 18:56N 45°36' W 001°28'0 0.1
2018-Apr-11 18:20N 45°36' W 001°28'0 0.1
2018-Apr-11 17:59N 45°36' W 001°28'0 0.2
2018-Apr-11 17:23N 45°36' W 001°28'0 0.1
2018-Apr-11 16:56N 45°36' W 001°28'0 0.0
2018-Apr-11 16:26N 45°36' W 001°28'0 0.0
2018-Apr-11 15:59N 45°36' W 001°28'0 0.1
2018-Apr-11 15:26N 45°36' W 001°28'0 0.1
2018-Apr-11 11:08N 45°36' W 001°28'0 0.1
2018-Apr-11 10:59N 45°36' W 001°28'0 0.1
2018-Apr-11 10:29N 45°36' W 001°28'0 0.1
2018-Apr-11 09:41N 45°36' W 001°28'0 0.0
2018-Apr-11 09:29N 45°36' W 001°28'0 0.0
2018-Apr-11 08:59N 45°36' W 001°28'0 0.0
2018-Apr-11 08:29N 45°36' W 001°28'0 0.0
2018-Apr-11 07:59N 45°36' W 001°28'0 0.0
2018-Apr-11 07:17N 45°36' W 001°28'0 0.0
2018-Apr-11 06:56N 45°36' W 001°28'0 0.0
2018-Apr-11 06:14N 45°36' W 001°28'0 0.0
2018-Apr-11 05:59N 45°36' W 001°28'0 0.0
2018-Apr-11 05:11N 45°36' W 001°28'0 0.1
2018-Apr-11 04:59N 45°36' W 001°28'0 0.0
2018-Apr-11 04:20N 45°36' W 001°28'0 0.0
2018-Apr-11 03:59N 45°36' W 001°28'0 0.0
2018-Apr-11 03:17N 45°36' W 001°28'0 0.0
2018-Apr-11 02:56N 45°36' W 001°28'0 0.0
2018-Apr-11 02:20N 45°36' W 001°28'0 0.0
2018-Apr-11 01:59N 45°36' W 001°28'0 0.0
2018-Apr-11 00:41N 45°36' W 001°28'0 0.1
2018-Apr-11 00:23N 45°36' W 001°28'0 0.1
2018-Apr-10 23:53N 45°36' W 001°28'0 0.1
2018-Apr-10 23:26N 45°36' W 001°28'0 0.1
2018-Apr-10 22:56N 45°36' W 001°28'0 0.1
2018-Apr-10 22:29N 45°36' W 001°28'0 0.1
2018-Apr-10 21:56N 45°36' W 001°28'0 0.1
2018-Apr-10 20:56N 45°36' W 001°28'0 0.0
2018-Apr-10 20:25N 45°36' W 001°28'0 0.0
2018-Apr-10 16:55N 45°36' W 001°28'0 0.0
2018-Apr-10 16:20N 45°36' W 001°28'0 0.0
2018-Apr-10 15:50N 45°36' W 001°28'0 0.0
2018-Apr-10 14:14N 45°36' W 001°28'0 0.0
2018-Apr-10 11:52N 45°36' W 001°28'0 0.0
2018-Apr-10 08:34N 45°36' W 001°28'0 0.3
2018-Apr-10 08:29N 45°36' W 001°28'1 2.4
2018-Apr-10 08:00N 45°37' W 001°28'1810.6
2018-Apr-10 06:18N 45°52' W 001°43'412.5
2018-Apr-10 06:00N 45°55' W 001°46'612.0
2018-Apr-10 05:30N 46°00' W 001°51'711.8
2018-Apr-10 04:54N 46°06' W 001°57'512.0
2018-Apr-10 04:29N 46°10' W 002°01'612.1
2018-Apr-10 03:58N 46°15' W 002°06'612.0
2018-Apr-10 03:30N 46°19' W 002°11'712.0
2018-Apr-10 02:57N 46°23' W 002°19'512.1
2018-Apr-10 02:30N 46°26' W 002°26'712.2
2018-Apr-10 01:56N 46°30' W 002°34'4612.2
2018-Apr-09 22:12N 46°55' W 003°30'412.0
2018-Apr-09 21:53N 46°57' W 003°35'612.0
2018-Apr-09 21:22N 47°00' W 003°42'511.4
2018-Apr-09 20:57N 47°03' W 003°48'1511.6
2018-Apr-09 19:38N 47°11' W 004°07'  
Track history (hours):
 
Tides and Currents Weather Stations Pressure Air Temp Water Temp Dewpoint Dewpoint Depression Visibility Wind Speed Wind Dir Waves Ship Positions

Edith Kirk

Last reported at 2018-Apr-19 17:21 UTC. Time now 2018-Apr-20 22:14 UTC.
Position N 51°09' E 003°47'.

Length 183 m; draft 9.8 m.

Type: Ship. MMSI: 235081745.

Date/timePositionNaut miles runAvg speedWind from/ knotsBaromVisibWave heightAir tempDewpointWater temp
2018-Apr-19 17:21N 51°09' E 003°47'0 0.1
2018-Apr-19 17:01N 51°09' E 003°47'1 2.9
2018-Apr-19 16:31N 51°10' E 003°48'3 6.5
2018-Apr-19 16:00N 51°13' E 003°48'3 6.3
2018-Apr-19 15:30N 51°16' E 003°50'2 4.2
2018-Apr-19 15:00N 51°18' E 003°50'0 0.5
2018-Apr-19 14:30N 51°19' E 003°50'0 0.8
2018-Apr-19 14:00N 51°19' E 003°50'1 1.6
2018-Apr-19 13:30N 51°20' E 003°49'0 0.7
2018-Apr-19 13:00N 51°20' E 003°49'0 0.5
2018-Apr-19 12:31N 51°20' E 003°49'2 3.1
2018-Apr-19 12:00N 51°21' E 003°47'3 6.8
2018-Apr-19 11:30N 51°24' E 003°43'4 7.4
2018-Apr-19 11:00N 51°26' E 003°39'5 9.0
2018-Apr-19 10:30N 51°25' E 003°32'713.2
2018-Apr-19 10:00N 51°25' E 003°21'612.3
2018-Apr-19 09:31N 51°24' E 003°11'612.2
2018-Apr-19 09:01N 51°24' E 003°02'612.0
2018-Apr-19 08:30N 51°22' E 002°53'611.5
2018-Apr-19 07:59N 51°22' E 002°43'4 6.5
2018-Apr-19 07:21N 51°22' E 002°37'1 1.9
2018-Apr-19 06:48N 51°22' E 002°35'1 2.8
2018-Apr-19 06:29N 51°22' E 002°33'1 2.6
2018-Apr-19 05:59N 51°22' E 002°31'1 2.6
2018-Apr-19 05:30N 51°22' E 002°29'1 2.4
2018-Apr-19 04:58N 51°21' E 002°27'2 3.5
2018-Apr-19 04:31N 51°21' E 002°25'611.5
2018-Apr-19 04:00N 51°18' E 002°17'714.8
2018-Apr-19 03:30N 51°14' E 002°07'815.3
2018-Apr-19 03:00N 51°10' E 001°56'815.7
2018-Apr-19 02:30N 51°07' E 001°45'816.4
2018-Apr-19 02:00N 51°01' E 001°36'816.3
2018-Apr-19 01:30N 50°54' E 001°28'815.7
2018-Apr-19 01:00N 50°47' E 001°24'1114.3
2018-Apr-19 00:13N 50°38' E 001°14'414.3
2018-Apr-18 23:56N 50°35' E 001°09'714.6
2018-Apr-18 23:28N 50°31' E 001°01'714.5
2018-Apr-18 23:00N 50°28' E 000°51'814.9
2018-Apr-18 22:29N 50°25' E 000°40'715.1
2018-Apr-18 22:00N 50°23' E 000°29'715.2
2018-Apr-18 21:30N 50°21' E 000°18'714.9
2018-Apr-18 21:00N 50°19' E 000°06'714.3
2018-Apr-18 20:30N 50°18' W 000°05'713.9
2018-Apr-18 20:01N 50°16' W 000°15'713.5
2018-Apr-18 19:29N 50°15' W 000°26'613.0
2018-Apr-18 19:00N 50°13' W 000°35'612.3
2018-Apr-18 18:30N 50°11' W 000°45'611.5
2018-Apr-18 17:57N 50°10' W 000°54'510.9
2018-Apr-18 17:30N 50°09' W 001°02'510.2
2018-Apr-18 17:00N 50°07' W 001°09'5 9.7
2018-Apr-18 16:30N 50°06' W 001°17'5 9.1
2018-Apr-18 16:00N 50°05' W 001°24'4 8.7
2018-Apr-18 15:30N 50°04' W 001°30'4 8.6
2018-Apr-18 15:00N 50°03' W 001°37'4 8.7
2018-Apr-18 14:30N 50°01' W 001°43'5 9.2
2018-Apr-18 14:00N 50°00' W 001°50'510.1
2018-Apr-18 13:30N 49°59' W 001°58'510.9
2018-Apr-18 13:00N 49°57' W 002°06'611.9
2018-Apr-18 12:30N 49°56' W 002°15'812.8
2018-Apr-18 11:53N 49°54' W 002°27'513.2
2018-Apr-18 11:30N 49°53' W 002°34'713.4
2018-Apr-18 11:00N 49°51' W 002°44'713.5
2018-Apr-18 10:30N 49°49' W 002°54'713.6
2018-Apr-18 09:59N 49°47' W 003°05'713.8
2018-Apr-18 09:31N 49°43' W 003°13'713.8
2018-Apr-18 09:00N 49°40' W 003°22'813.9
2018-Apr-18 08:28N 49°36' W 003°32'1014.0
2018-Apr-18 07:44N 49°30' W 003°46'514.2
2018-Apr-18 07:21N 49°27' W 003°53'4814.3
2018-Apr-18 03:58N 49°02' W 004°56'1514.0
2018-Apr-18 02:53N 48°54' W 005°15'1312.8
2018-Apr-18 01:53N 48°48' W 005°32'1212.0
2018-Apr-18 00:53N 48°38' W 005°44'18110.4
2018-Apr-17 07:35N 45°43' W 004°40'310.6
2018-Apr-17 07:16N 45°41' W 004°36'14312.7
2018-Apr-16 20:00N 43°32' W 003°11'612.8
2018-Apr-16 19:30N 43°26' W 003°07'4 7.3
2018-Apr-16 18:58N 43°22' W 003°06'  
2018-Apr-14 14:09N 43°22' W 003°06'0 0.0
2018-Apr-14 13:56N 43°22' W 003°06'0 0.7
2018-Apr-14 13:28N 43°22' W 003°06'2 4.3
2018-Apr-14 13:00N 43°24' W 003°06'611.4
2018-Apr-14 12:30N 43°30' W 003°07'122 8.6
2018-Apr-13 22:21N 45°20' W 001°55'612.1
2018-Apr-13 21:52N 45°24' W 001°49'511.9
2018-Apr-13 21:27N 45°27' W 001°43'712.3
2018-Apr-13 20:51N 45°32' W 001°35'1011.6
2018-Apr-13 20:01N 45°36' W 001°23'815.4
2018-Apr-13 19:31N 45°40' W 001°13'815.6
2018-Apr-13 19:00N 45°35' W 001°04'917.2
2018-Apr-13 18:31N 45°29' W 000°56'713.8
2018-Apr-13 18:00N 45°23' W 000°50'815.1
2018-Apr-13 17:29N 45°16' W 000°45'3 0.1
2018-Apr-12 02:02N 45°13' W 000°44'012.2
2018-Apr-12 02:00N 45°13' W 000°44'611.5
2018-Apr-12 01:30N 45°19' W 000°47'511.0
2018-Apr-12 01:00N 45°24' W 000°50'5 9.5
2018-Apr-12 00:30N 45°27' W 000°54'714.3
2018-Apr-12 00:01N 45°33' W 001°01'714.2
2018-Apr-11 23:31N 45°38' W 001°07'713.0
2018-Apr-11 23:01N 45°38' W 001°17'612.0
2018-Apr-11 22:31N 45°35' W 001°24'2 3.7
2018-Apr-11 22:00N 45°36' W 001°26'1 2.1
2018-Apr-11 21:30N 45°36' W 001°28'0 0.2
2018-Apr-11 20:47N 45°36' W 001°28'0 0.1
2018-Apr-11 20:20N 45°36' W 001°28'0 0.0
2018-Apr-11 19:53N 45°36' W 001°28'0 0.0
2018-Apr-11 19:29N 45°36' W 001°28'0 0.1
2018-Apr-11 18:56N 45°36' W 001°28'0 0.1
2018-Apr-11 18:20N 45°36' W 001°28'0 0.1
2018-Apr-11 17:59N 45°36' W 001°28'0 0.2
2018-Apr-11 17:23N 45°36' W 001°28'0 0.1
2018-Apr-11 16:56N 45°36' W 001°28'0 0.0
2018-Apr-11 16:26N 45°36' W 001°28'0 0.0
2018-Apr-11 15:59N 45°36' W 001°28'0 0.1
2018-Apr-11 15:26N 45°36' W 001°28'0 0.1
2018-Apr-11 11:08N 45°36' W 001°28'0 0.1
2018-Apr-11 10:59N 45°36' W 001°28'0 0.1
2018-Apr-11 10:29N 45°36' W 001°28'0 0.1
2018-Apr-11 09:41N 45°36' W 001°28'0 0.0
2018-Apr-11 09:29N 45°36' W 001°28'0 0.0
2018-Apr-11 08:59N 45°36' W 001°28'0 0.0
2018-Apr-11 08:29N 45°36' W 001°28'0 0.0
2018-Apr-11 07:59N 45°36' W 001°28'0 0.0
2018-Apr-11 07:17N 45°36' W 001°28'0 0.0
2018-Apr-11 06:56N 45°36' W 001°28'0 0.0
2018-Apr-11 06:14N 45°36' W 001°28'0 0.0
2018-Apr-11 05:59N 45°36' W 001°28'0 0.0
2018-Apr-11 05:11N 45°36' W 001°28'0 0.1
2018-Apr-11 04:59N 45°36' W 001°28'0 0.0
2018-Apr-11 04:20N 45°36' W 001°28'0 0.0
2018-Apr-11 03:59N 45°36' W 001°28'0 0.0
2018-Apr-11 03:17N 45°36' W 001°28'0 0.0
2018-Apr-11 02:56N 45°36' W 001°28'0 0.0
2018-Apr-11 02:20N 45°36' W 001°28'0 0.0
2018-Apr-11 01:59N 45°36' W 001°28'0 0.0
2018-Apr-11 00:41N 45°36' W 001°28'0 0.1
2018-Apr-11 00:23N 45°36' W 001°28'0 0.1
2018-Apr-10 23:53N 45°36' W 001°28'0 0.1
2018-Apr-10 23:26N 45°36' W 001°28'0 0.1
2018-Apr-10 22:56N 45°36' W 001°28'0 0.1
2018-Apr-10 22:29N 45°36' W 001°28'0 0.1
2018-Apr-10 21:56N 45°36' W 001°28'0 0.1
2018-Apr-10 20:56N 45°36' W 001°28'0 0.0
2018-Apr-10 20:25N 45°36' W 001°28'0 0.0
2018-Apr-10 16:55N 45°36' W 001°28'0 0.0
2018-Apr-10 16:20N 45°36' W 001°28'0 0.0
2018-Apr-10 15:50N 45°36' W 001°28'0 0.0
2018-Apr-10 14:14N 45°36' W 001°28'0 0.0
2018-Apr-10 11:52N 45°36' W 001°28'0 0.0
2018-Apr-10 08:34N 45°36' W 001°28'0 0.3
2018-Apr-10 08:29N 45°36' W 001°28'1 2.4
2018-Apr-10 08:00N 45°37' W 001°28'1810.6
2018-Apr-10 06:18N 45°52' W 001°43'412.5
2018-Apr-10 06:00N 45°55' W 001°46'612.0
2018-Apr-10 05:30N 46°00' W 001°51'711.8
2018-Apr-10 04:54N 46°06' W 001°57'512.0
2018-Apr-10 04:29N 46°10' W 002°01'612.1
2018-Apr-10 03:58N 46°15' W 002°06'612.0
2018-Apr-10 03:30N 46°19' W 002°11'712.0
2018-Apr-10 02:57N 46°23' W 002°19'512.1
2018-Apr-10 02:30N 46°26' W 002°26'712.2
2018-Apr-10 01:56N 46°30' W 002°34'4612.2
2018-Apr-09 22:12N 46°55' W 003°30'412.0
2018-Apr-09 21:53N 46°57' W 003°35'612.0
2018-Apr-09 21:22N 47°00' W 003°42'511.4
2018-Apr-09 20:57N 47°03' W 003°48'1511.6
2018-Apr-09 19:38N 47°11' W 004°07'  

Dump ship's entire track history